KDTN/DTN METAR and TAF weather

Enter ICAO airport designator
Station Type Date Time Source
KDTN METAR 2019/05/19 19:53 UTC NOAA

KDTN 191953Z 23007KT 10SM FEW041 SCT055 32/22 A2986 RMK AO2 SLP109 T03220222


Station Type Date Time Source
KDTN Decoded METAR 2019/05/19 19:53 UTC NOAA

SHREVEPORT DOWNTOWN AIRPORT, LA, United States (KDTN) 32-32N 093-45W 53M
May 19, 2019 - 03:53 PM EDT / 2019.05.19 1953 UTC
Wind: from the SW (230 degrees) at 8 MPH (7 KT):0
Visibility: 10 mile(s):0
Sky conditions: partly cloudy
Temperature: 90.0 F (32.2 C)
Heat index: 97.0 F (36.1 C):1
Dew Point: 72.0 F (22.2 C)
Relative Humidity: 55%
Pressure (altimeter): 29.86 in. Hg (1011 hPa)
ob: KDTN 191953Z 23007KT 10SM FEW041 SCT055 32/22 A2986 RMK AO2 SLP109 T03220222
cycle: 20

Station Type Date Time Source
KDTN TAF UTC NOAA

Error!

Example: see airport list